sensor_id;sensor_type;location;lat;lon;timestamp;P1;durP1;ratioP1;P2;durP2;ratioP2
86039;SDS011;76638;53.338;-6.250;2024-02-26T00:00:11;15.43;;;6.25;;
86039;SDS011;76638;53.338;-6.250;2024-02-26T00:02:38;18.35;;;7.50;;
86039;SDS011;76638;53.338;-6.250;2024-02-26T00:05:05;27.25;;;7.25;;
86039;SDS011;76638;53.338;-6.250;2024-02-26T00:07:32;17.27;;;7.20;;
86039;SDS011;76638;53.338;-6.250;2024-02-26T00:09:57;17.58;;;7.35;;
86039;SDS011;76638;53.338;-6.250;2024-02-26T00:12:23;19.33;;;7.88;;
86039;SDS011;76638;53.338;-6.250;2024-02-26T00:14:49;13.75;;;7.03;;
86039;SDS011;76638;53.338;-6.250;2024-02-26T00:17:15;15.98;;;7.03;;
86039;SDS011;76638;53.338;-6.250;2024-02-26T00:19:41;14.45;;;6.55;;
86039;SDS011;76638;53.338;-6.250;2024-02-26T00:22:07;14.45;;;7.20;;
86039;SDS011;76638;53.338;-6.250;2024-02-26T00:24:33;12.55;;;6.75;;
86039;SDS011;76638;53.338;-6.250;2024-02-26T00:26:59;15.40;;;7.20;;
86039;SDS011;76638;53.338;-6.250;2024-02-26T00:29:26;13.95;;;6.53;;
86039;SDS011;76638;53.338;-6.250;2024-02-26T00:31:52;13.13;;;6.78;;
86039;SDS011;76638;53.338;-6.250;2024-02-26T00:34:18;17.20;;;7.82;;
86039;SDS011;76638;53.338;-6.250;2024-02-26T00:36:44;14.35;;;6.78;;
86039;SDS011;76638;53.338;-6.250;2024-02-26T00:39:11;16.67;;;7.43;;
86039;SDS011;76638;53.338;-6.250;2024-02-26T00:41:40;15.30;;;6.50;;
86039;SDS011;76638;53.338;-6.250;2024-02-26T00:44:06;14.65;;;7.00;;
86039;SDS011;76638;53.338;-6.250;2024-02-26T00:46:33;19.20;;;7.47;;
86039;SDS011;76638;53.338;-6.250;2024-02-26T00:48:59;14.80;;;6.93;;
86039;SDS011;76638;53.338;-6.250;2024-02-26T00:51:25;17.63;;;7.40;;
86039;SDS011;76638;53.338;-6.250;2024-02-26T00:53:52;16.38;;;6.65;;
86039;SDS011;76638;53.338;-6.250;2024-02-26T00:56:17;12.20;;;7.18;;
86039;SDS011;76638;53.338;-6.250;2024-02-26T00:58:43;12.45;;;7.32;;
86039;SDS011;76638;53.338;-6.250;2024-02-26T01:01:09;12.75;;;6.70;;
86039;SDS011;76638;53.338;-6.250;2024-02-26T01:03:35;13.40;;;6.68;;
86039;SDS011;76638;53.338;-6.250;2024-02-26T01:06:01;13.10;;;7.72;;
86039;SDS011;76638;53.338;-6.250;2024-02-26T01:08:27;14.20;;;7.18;;
86039;SDS011;76638;53.338;-6.250;2024-02-26T01:10:53;14.45;;;7.55;;
86039;SDS011;76638;53.338;-6.250;2024-02-26T01:13:19;16.17;;;7.30;;
86039;SDS011;76638;53.338;-6.250;2024-02-26T01:15:45;12.07;;;7.47;;
86039;SDS011;76638;53.338;-6.250;2024-02-26T01:18:11;10.15;;;6.43;;
86039;SDS011;76638;53.338;-6.250;2024-02-26T01:20:37;14.07;;;7.78;;
86039;SDS011;76638;53.338;-6.250;2024-02-26T01:23:03;12.02;;;7.45;;
86039;SDS011;76638;53.338;-6.250;2024-02-26T01:25:29;14.68;;;7.72;;
86039;SDS011;76638;53.338;-6.250;2024-02-26T01:27:55;15.05;;;7.43;;
86039;SDS011;76638;53.338;-6.250;2024-02-26T01:30:21;11.98;;;6.93;;
86039;SDS011;76638;53.338;-6.250;2024-02-26T01:32:46;13.27;;;7.45;;
86039;SDS011;76638;53.338;-6.250;2024-02-26T01:35:12;15.95;;;7.07;;
86039;SDS011;76638;53.338;-6.250;2024-02-26T01:37:38;13.70;;;7.60;;
86039;SDS011;76638;53.338;-6.250;2024-02-26T01:40:05;13.73;;;7.75;;
86039;SDS011;76638;53.338;-6.250;2024-02-26T01:42:32;14.38;;;7.35;;
86039;SDS011;76638;53.338;-6.250;2024-02-26T01:44:59;11.32;;;7.18;;
86039;SDS011;76638;53.338;-6.250;2024-02-26T01:47:25;12.85;;;7.32;;
86039;SDS011;76638;53.338;-6.250;2024-02-26T01:49:52;12.38;;;6.35;;
86039;SDS011;76638;53.338;-6.250;2024-02-26T01:52:18;10.48;;;6.53;;
86039;SDS011;76638;53.338;-6.250;2024-02-26T01:54:44;13.55;;;6.85;;
86039;SDS011;76638;53.338;-6.250;2024-02-26T01:57:11;10.00;;;6.30;;
86039;SDS011;76638;53.338;-6.250;2024-02-26T01:59:37;12.57;;;6.53;;
86039;SDS011;76638;53.338;-6.250;2024-02-26T02:02:06;12.43;;;5.68;;
86039;SDS011;76638;53.338;-6.250;2024-02-26T02:04:34;10.07;;;6.22;;
86039;SDS011;76638;53.338;-6.250;2024-02-26T02:07:00;9.65;;;5.78;;
86039;SDS011;76638;53.338;-6.250;2024-02-26T02:09:27;8.68;;;5.47;;
86039;SDS011;76638;53.338;-6.250;2024-02-26T02:11:53;12.98;;;5.35;;
86039;SDS011;76638;53.338;-6.250;2024-02-26T02:14:19;12.10;;;5.18;;
86039;SDS011;76638;53.338;-6.250;2024-02-26T02:16:46;9.98;;;5.30;;
86039;SDS011;76638;53.338;-6.250;2024-02-26T02:19:13;14.07;;;5.60;;
86039;SDS011;76638;53.338;-6.250;2024-02-26T02:21:39;13.23;;;5.20;;
86039;SDS011;76638;53.338;-6.250;2024-02-26T02:24:05;9.20;;;4.82;;
86039;SDS011;76638;53.338;-6.250;2024-02-26T02:26:30;8.35;;;5.05;;
86039;SDS011;76638;53.338;-6.250;2024-02-26T02:28:56;7.88;;;5.22;;
86039;SDS011;76638;53.338;-6.250;2024-02-26T02:31:22;10.65;;;5.40;;
86039;SDS011;76638;53.338;-6.250;2024-02-26T02:33:48;8.23;;;5.05;;
86039;SDS011;76638;53.338;-6.250;2024-02-26T02:36:14;13.23;;;5.78;;
86039;SDS011;76638;53.338;-6.250;2024-02-26T02:38:48;11.45;;;5.40;;
86039;SDS011;76638;53.338;-6.250;2024-02-26T02:41:18;10.38;;;5.65;;
86039;SDS011;76638;53.338;-6.250;2024-02-26T02:43:44;9.02;;;4.97;;
86039;SDS011;76638;53.338;-6.250;2024-02-26T02:46:10;8.40;;;5.30;;
86039;SDS011;76638;53.338;-6.250;2024-02-26T02:48:38;8.10;;;5.13;;
86039;SDS011;76638;53.338;-6.250;2024-02-26T02:51:04;14.00;;;5.78;;
86039;SDS011;76638;53.338;-6.250;2024-02-26T02:53:30;10.57;;;5.88;;
86039;SDS011;76638;53.338;-6.250;2024-02-26T02:55:56;11.48;;;5.53;;
86039;SDS011;76638;53.338;-6.250;2024-02-26T02:58:22;8.75;;;6.18;;
86039;SDS011;76638;53.338;-6.250;2024-02-26T03:00:47;13.40;;;6.47;;
86039;SDS011;76638;53.338;-6.250;2024-02-26T03:03:13;8.93;;;5.38;;
86039;SDS011;76638;53.338;-6.250;2024-02-26T03:05:39;11.40;;;5.38;;
86039;SDS011;76638;53.338;-6.250;2024-02-26T03:08:05;10.55;;;6.38;;
86039;SDS011;76638;53.338;-6.250;2024-02-26T03:10:31;13.13;;;5.85;;
86039;SDS011;76638;53.338;-6.250;2024-02-26T03:12:56;9.77;;;5.25;;
86039;SDS011;76638;53.338;-6.250;2024-02-26T03:15:22;10.35;;;5.68;;
86039;SDS011;76638;53.338;-6.250;2024-02-26T03:17:48;11.45;;;6.40;;
86039;SDS011;76638;53.338;-6.250;2024-02-26T03:20:14;11.55;;;5.93;;
86039;SDS011;76638;53.338;-6.250;2024-02-26T03:22:40;11.80;;;6.25;;
86039;SDS011;76638;53.338;-6.250;2024-02-26T03:25:06;11.27;;;5.97;;
86039;SDS011;76638;53.338;-6.250;2024-02-26T03:27:32;11.10;;;6.38;;
86039;SDS011;76638;53.338;-6.250;2024-02-26T03:29:58;10.50;;;6.72;;
86039;SDS011;76638;53.338;-6.250;2024-02-26T03:32:24;15.60;;;6.97;;
86039;SDS011;76638;53.338;-6.250;2024-02-26T03:34:50;10.32;;;6.50;;
86039;SDS011;76638;53.338;-6.250;2024-02-26T03:37:19;10.52;;;5.90;;
86039;SDS011;76638;53.338;-6.250;2024-02-26T03:39:45;13.40;;;6.53;;
86039;SDS011;76638;53.338;-6.250;2024-02-26T03:42:11;11.75;;;6.60;;
86039;SDS011;76638;53.338;-6.250;2024-02-26T03:44:36;13.20;;;6.75;;
86039;SDS011;76638;53.338;-6.250;2024-02-26T03:47:02;12.77;;;6.70;;
86039;SDS011;76638;53.338;-6.250;2024-02-26T03:49:28;13.88;;;6.25;;
86039;SDS011;76638;53.338;-6.250;2024-02-26T03:51:54;10.65;;;6.28;;
86039;SDS011;76638;53.338;-6.250;2024-02-26T03:54:20;13.07;;;6.88;;
86039;SDS011;76638;53.338;-6.250;2024-02-26T03:56:46;10.52;;;6.50;;
86039;SDS011;76638;53.338;-6.250;2024-02-26T03:59:11;13.07;;;6.45;;
86039;SDS011;76638;53.338;-6.250;2024-02-26T04:01:37;10.85;;;6.00;;
86039;SDS011;76638;53.338;-6.250;2024-02-26T04:04:03;13.30;;;5.88;;
86039;SDS011;76638;53.338;-6.250;2024-02-26T04:06:29;10.82;;;5.88;;
86039;SDS011;76638;53.338;-6.250;2024-02-26T04:08:55;10.05;;;5.45;;
86039;SDS011;76638;53.338;-6.250;2024-02-26T04:11:21;9.02;;;4.75;;
86039;SDS011;76638;53.338;-6.250;2024-02-26T04:13:47;11.00;;;5.55;;
86039;SDS011;76638;53.338;-6.250;2024-02-26T04:16:16;9.30;;;4.85;;
86039;SDS011;76638;53.338;-6.250;2024-02-26T04:18:42;9.88;;;5.28;;
86039;SDS011;76638;53.338;-6.250;2024-02-26T04:21:08;9.30;;;4.97;;
86039;SDS011;76638;53.338;-6.250;2024-02-26T04:23:33;8.27;;;4.85;;
86039;SDS011;76638;53.338;-6.250;2024-02-26T04:25:59;8.07;;;4.55;;
86039;SDS011;76638;53.338;-6.250;2024-02-26T04:28:25;11.15;;;4.80;;
86039;SDS011;76638;53.338;-6.250;2024-02-26T04:30:54;7.13;;;4.50;;
86039;SDS011;76638;53.338;-6.250;2024-02-26T04:33:21;8.05;;;4.28;;
86039;SDS011;76638;53.338;-6.250;2024-02-26T04:35:47;8.93;;;4.15;;
86039;SDS011;76638;53.338;-6.250;2024-02-26T04:38:13;7.90;;;4.47;;
86039;SDS011;76638;53.338;-6.250;2024-02-26T04:40:38;7.03;;;4.10;;
86039;SDS011;76638;53.338;-6.250;2024-02-26T04:43:04;6.68;;;3.80;;
86039;SDS011;76638;53.338;-6.250;2024-02-26T04:45:30;10.32;;;4.07;;
86039;SDS011;76638;53.338;-6.250;2024-02-26T04:47:56;9.85;;;3.72;;
86039;SDS011;76638;53.338;-6.250;2024-02-26T04:50:21;8.18;;;3.80;;
86039;SDS011;76638;53.338;-6.250;2024-02-26T04:52:47;9.80;;;3.97;;
86039;SDS011;76638;53.338;-6.250;2024-02-26T04:55:13;15.82;;;4.28;;
86039;SDS011;76638;53.338;-6.250;2024-02-26T04:57:39;7.38;;;3.50;;
86039;SDS011;76638;53.338;-6.250;2024-02-26T05:00:05;8.20;;;3.90;;
86039;SDS011;76638;53.338;-6.250;2024-02-26T05:02:31;8.40;;;3.72;;
86039;SDS011;76638;53.338;-6.250;2024-02-26T05:04:58;4.50;;;3.40;;
86039;SDS011;76638;53.338;-6.250;2024-02-26T05:07:24;7.70;;;3.33;;
86039;SDS011;76638;53.338;-6.250;2024-02-26T05:09:50;5.82;;;2.92;;
86039;SDS011;76638;53.338;-6.250;2024-02-26T05:12:16;5.72;;;3.28;;
86039;SDS011;76638;53.338;-6.250;2024-02-26T05:14:42;6.85;;;2.97;;
86039;SDS011;76638;53.338;-6.250;2024-02-26T05:17:08;4.55;;;2.75;;
86039;SDS011;76638;53.338;-6.250;2024-02-26T05:19:34;5.43;;;2.97;;
86039;SDS011;76638;53.338;-6.250;2024-02-26T05:22:00;8.15;;;2.92;;
86039;SDS011;76638;53.338;-6.250;2024-02-26T05:24:25;3.67;;;2.65;;
86039;SDS011;76638;53.338;-6.250;2024-02-26T05:26:51;4.00;;;2.40;;
86039;SDS011;76638;53.338;-6.250;2024-02-26T05:29:17;7.22;;;2.58;;
86039;SDS011;76638;53.338;-6.250;2024-02-26T05:31:43;5.68;;;2.22;;
86039;SDS011;76638;53.338;-6.250;2024-02-26T05:34:09;8.52;;;2.22;;
86039;SDS011;76638;53.338;-6.250;2024-02-26T05:36:35;6.80;;;2.40;;
86039;SDS011;76638;53.338;-6.250;2024-02-26T05:39:01;4.57;;;2.40;;
86039;SDS011;76638;53.338;-6.250;2024-02-26T05:41:27;5.88;;;2.28;;
86039;SDS011;76638;53.338;-6.250;2024-02-26T05:43:53;5.85;;;1.77;;
86039;SDS011;76638;53.338;-6.250;2024-02-26T05:46:19;4.72;;;2.45;;
86039;SDS011;76638;53.338;-6.250;2024-02-26T05:48:49;3.47;;;2.10;;
86039;SDS011;76638;53.338;-6.250;2024-02-26T05:51:16;4.10;;;2.25;;
86039;SDS011;76638;53.338;-6.250;2024-02-26T05:53:42;5.93;;;2.20;;
86039;SDS011;76638;53.338;-6.250;2024-02-26T05:56:08;3.10;;;2.08;;
86039;SDS011;76638;53.338;-6.250;2024-02-26T05:58:33;7.15;;;2.15;;
86039;SDS011;76638;53.338;-6.250;2024-02-26T06:00:59;4.20;;;1.88;;
86039;SDS011;76638;53.338;-6.250;2024-02-26T06:03:26;7.25;;;2.00;;
86039;SDS011;76638;53.338;-6.250;2024-02-26T06:05:52;4.80;;;1.60;;
86039;SDS011;76638;53.338;-6.250;2024-02-26T06:08:18;1.98;;;1.63;;
86039;SDS011;76638;53.338;-6.250;2024-02-26T06:10:43;5.47;;;1.92;;
86039;SDS011;76638;53.338;-6.250;2024-02-26T06:13:09;4.32;;;1.67;;
86039;SDS011;76638;53.338;-6.250;2024-02-26T06:15:35;3.33;;;1.45;;
86039;SDS011;76638;53.338;-6.250;2024-02-26T06:18:01;6.68;;;1.80;;
86039;SDS011;76638;53.338;-6.250;2024-02-26T06:20:27;2.65;;;1.58;;
86039;SDS011;76638;53.338;-6.250;2024-02-26T06:22:53;2.67;;;1.73;;
86039;SDS011;76638;53.338;-6.250;2024-02-26T06:25:19;2.92;;;1.73;;
86039;SDS011;76638;53.338;-6.250;2024-02-26T06:27:44;3.33;;;1.73;;
86039;SDS011;76638;53.338;-6.250;2024-02-26T06:30:10;4.60;;;1.80;;
86039;SDS011;76638;53.338;-6.250;2024-02-26T06:32:37;2.38;;;1.60;;
86039;SDS011;76638;53.338;-6.250;2024-02-26T06:35:03;2.45;;;1.67;;
86039;SDS011;76638;53.338;-6.250;2024-02-26T06:37:34;4.65;;;1.60;;
86039;SDS011;76638;53.338;-6.250;2024-02-26T06:40:00;3.83;;;1.67;;
86039;SDS011;76638;53.338;-6.250;2024-02-26T06:42:29;1.95;;;1.52;;
86039;SDS011;76638;53.338;-6.250;2024-02-26T06:44:57;3.63;;;1.80;;
86039;SDS011;76638;53.338;-6.250;2024-02-26T06:47:23;4.78;;;1.45;;
86039;SDS011;76638;53.338;-6.250;2024-02-26T06:49:49;2.38;;;1.58;;
86039;SDS011;76638;53.338;-6.250;2024-02-26T06:52:14;6.95;;;2.10;;
86039;SDS011;76638;53.338;-6.250;2024-02-26T06:54:40;5.75;;;1.73;;
86039;SDS011;76638;53.338;-6.250;2024-02-26T06:57:07;5.95;;;2.03;;
86039;SDS011;76638;53.338;-6.250;2024-02-26T06:59:32;4.32;;;1.58;;
86039;SDS011;76638;53.338;-6.250;2024-02-26T07:01:58;4.63;;;1.48;;
86039;SDS011;76638;53.338;-6.250;2024-02-26T07:04:24;2.90;;;1.55;;
86039;SDS011;76638;53.338;-6.250;2024-02-26T07:06:50;5.75;;;1.90;;
86039;SDS011;76638;53.338;-6.250;2024-02-26T07:09:15;3.88;;;1.30;;
86039;SDS011;76638;53.338;-6.250;2024-02-26T07:11:41;4.45;;;1.45;;
86039;SDS011;76638;53.338;-6.250;2024-02-26T07:14:11;6.63;;;1.55;;
86039;SDS011;76638;53.338;-6.250;2024-02-26T07:16:38;3.17;;;1.20;;
86039;SDS011;76638;53.338;-6.250;2024-02-26T07:19:04;2.90;;;1.15;;
86039;SDS011;76638;53.338;-6.250;2024-02-26T07:21:31;5.15;;;1.40;;
86039;SDS011;76638;53.338;-6.250;2024-02-26T07:23:57;5.78;;;1.20;;
86039;SDS011;76638;53.338;-6.250;2024-02-26T07:26:23;4.03;;;1.50;;
86039;SDS011;76638;53.338;-6.250;2024-02-26T07:28:51;4.82;;;1.42;;
86039;SDS011;76638;53.338;-6.250;2024-02-26T07:31:17;4.88;;;1.20;;
86039;SDS011;76638;53.338;-6.250;2024-02-26T07:33:43;1.95;;;1.00;;
86039;SDS011;76638;53.338;-6.250;2024-02-26T07:36:09;5.18;;;1.20;;
86039;SDS011;76638;53.338;-6.250;2024-02-26T07:38:35;4.35;;;1.50;;
86039;SDS011;76638;53.338;-6.250;2024-02-26T07:41:04;3.72;;;1.30;;
86039;SDS011;76638;53.338;-6.250;2024-02-26T07:43:30;4.45;;;1.30;;
86039;SDS011;76638;53.338;-6.250;2024-02-26T07:45:57;9.45;;;1.80;;
86039;SDS011;76638;53.338;-6.250;2024-02-26T07:48:23;3.65;;;1.40;;
86039;SDS011;76638;53.338;-6.250;2024-02-26T07:50:48;5.18;;;1.35;;
86039;SDS011;76638;53.338;-6.250;2024-02-26T07:53:14;6.07;;;1.65;;
86039;SDS011;76638;53.338;-6.250;2024-02-26T07:55:40;7.55;;;1.50;;
86039;SDS011;76638;53.338;-6.250;2024-02-26T07:58:07;6.47;;;1.13;;
86039;SDS011;76638;53.338;-6.250;2024-02-26T08:00:33;4.78;;;1.20;;
86039;SDS011;76638;53.338;-6.250;2024-02-26T08:02:59;6.72;;;0.88;;
86039;SDS011;76638;53.338;-6.250;2024-02-26T08:05:24;6.22;;;1.27;;
86039;SDS011;76638;53.338;-6.250;2024-02-26T08:07:50;4.68;;;1.00;;
86039;SDS011;76638;53.338;-6.250;2024-02-26T08:10:16;6.53;;;1.20;;
86039;SDS011;76638;53.338;-6.250;2024-02-26T08:12:42;7.45;;;1.30;;
86039;SDS011;76638;53.338;-6.250;2024-02-26T08:15:08;4.32;;;1.40;;
86039;SDS011;76638;53.338;-6.250;2024-02-26T08:17:34;7.85;;;1.77;;
86039;SDS011;76638;53.338;-6.250;2024-02-26T08:20:00;7.60;;;1.45;;
86039;SDS011;76638;53.338;-6.250;2024-02-26T08:22:26;5.63;;;1.33;;
86039;SDS011;76638;53.338;-6.250;2024-02-26T08:24:51;10.32;;;1.65;;
86039;SDS011;76638;53.338;-6.250;2024-02-26T08:27:17;6.45;;;1.67;;
86039;SDS011;76638;53.338;-6.250;2024-02-26T08:29:43;2.58;;;1.52;;
86039;SDS011;76638;53.338;-6.250;2024-02-26T08:32:09;2.83;;;1.10;;
86039;SDS011;76638;53.338;-6.250;2024-02-26T08:34:35;9.90;;;1.02;;
86039;SDS011;76638;53.338;-6.250;2024-02-26T08:37:00;9.65;;;1.50;;
86039;SDS011;76638;53.338;-6.250;2024-02-26T08:39:26;5.60;;;1.35;;
86039;SDS011;76638;53.338;-6.250;2024-02-26T08:41:52;6.88;;;2.20;;
86039;SDS011;76638;53.338;-6.250;2024-02-26T08:44:18;5.57;;;0.98;;
86039;SDS011;76638;53.338;-6.250;2024-02-26T08:46:43;2.92;;;0.93;;
86039;SDS011;76638;53.338;-6.250;2024-02-26T08:49:11;4.78;;;0.98;;
86039;SDS011;76638;53.338;-6.250;2024-02-26T08:51:43;3.95;;;0.80;;
86039;SDS011;76638;53.338;-6.250;2024-02-26T08:54:09;3.17;;;1.20;;
86039;SDS011;76638;53.338;-6.250;2024-02-26T08:56:35;3.72;;;0.80;;
86039;SDS011;76638;53.338;-6.250;2024-02-26T08:59:01;5.00;;;0.90;;
86039;SDS011;76638;53.338;-6.250;2024-02-26T09:01:29;1.75;;;1.05;;
86039;SDS011;76638;53.338;-6.250;2024-02-26T09:03:56;2.72;;;0.80;;
86039;SDS011;76638;53.338;-6.250;2024-02-26T09:06:22;2.03;;;0.73;;
86039;SDS011;76638;53.338;-6.250;2024-02-26T09:08:48;2.47;;;0.80;;
86039;SDS011;76638;53.338;-6.250;2024-02-26T09:11:14;6.18;;;0.80;;
86039;SDS011;76638;53.338;-6.250;2024-02-26T09:13:40;8.07;;;1.20;;
86039;SDS011;76638;53.338;-6.250;2024-02-26T09:16:06;3.65;;;1.20;;
86039;SDS011;76638;53.338;-6.250;2024-02-26T09:18:32;3.58;;;1.10;;
86039;SDS011;76638;53.338;-6.250;2024-02-26T09:20:57;2.75;;;1.25;;
86039;SDS011;76638;53.338;-6.250;2024-02-26T09:23:23;4.97;;;1.20;;
86039;SDS011;76638;53.338;-6.250;2024-02-26T09:25:49;2.40;;;1.10;;
86039;SDS011;76638;53.338;-6.250;2024-02-26T09:28:15;4.45;;;1.35;;
86039;SDS011;76638;53.338;-6.250;2024-02-26T09:30:43;4.13;;;0.82;;
86039;SDS011;76638;53.338;-6.250;2024-02-26T09:33:09;2.20;;;0.80;;
86039;SDS011;76638;53.338;-6.250;2024-02-26T09:35:35;1.90;;;0.88;;
86039;SDS011;76638;53.338;-6.250;2024-02-26T09:38:01;2.45;;;0.70;;
86039;SDS011;76638;53.338;-6.250;2024-02-26T09:40:26;3.80;;;1.20;;
86039;SDS011;76638;53.338;-6.250;2024-02-26T09:42:53;4.40;;;1.00;;
86039;SDS011;76638;53.338;-6.250;2024-02-26T09:45:25;3.08;;;0.75;;
86039;SDS011;76638;53.338;-6.250;2024-02-26T09:47:52;2.50;;;0.93;;
86039;SDS011;76638;53.338;-6.250;2024-02-26T09:50:21;5.80;;;2.45;;
86039;SDS011;76638;53.338;-6.250;2024-02-26T09:52:50;3.30;;;0.93;;
86039;SDS011;76638;53.338;-6.250;2024-02-26T09:55:17;4.13;;;1.40;;
86039;SDS011;76638;53.338;-6.250;2024-02-26T09:57:45;4.22;;;0.73;;
86039;SDS011;76638;53.338;-6.250;2024-02-26T10:00:15;7.22;;;0.88;;
86039;SDS011;76638;53.338;-6.250;2024-02-26T10:02:45;4.88;;;0.95;;
86039;SDS011;76638;53.338;-6.250;2024-02-26T10:05:16;3.47;;;0.70;;
86039;SDS011;76638;53.338;-6.250;2024-02-26T10:07:46;4.43;;;0.70;;
86039;SDS011;76638;53.338;-6.250;2024-02-26T10:10:15;2.42;;;0.70;;
86039;SDS011;76638;53.338;-6.250;2024-02-26T10:12:42;7.18;;;1.00;;
86039;SDS011;76638;53.338;-6.250;2024-02-26T10:15:08;2.53;;;0.63;;
86039;SDS011;76638;53.338;-6.250;2024-02-26T10:17:34;4.35;;;0.73;;
86039;SDS011;76638;53.338;-6.250;2024-02-26T10:20:20;1.92;;;0.60;;
86039;SDS011;76638;53.338;-6.250;2024-02-26T10:22:50;2.88;;;0.60;;
86039;SDS011;76638;53.338;-6.250;2024-02-26T10:25:17;2.90;;;0.68;;
86039;SDS011;76638;53.338;-6.250;2024-02-26T10:27:45;2.17;;;0.68;;
86039;SDS011;76638;53.338;-6.250;2024-02-26T10:30:18;3.53;;;1.33;;
86039;SDS011;76638;53.338;-6.250;2024-02-26T10:32:45;3.72;;;0.57;;
86039;SDS011;76638;53.338;-6.250;2024-02-26T10:35:15;3.85;;;1.30;;
86039;SDS011;76638;53.338;-6.250;2024-02-26T10:37:41;3.50;;;0.80;;
86039;SDS011;76638;53.338;-6.250;2024-02-26T10:40:14;3.58;;;0.68;;
86039;SDS011;76638;53.338;-6.250;2024-02-26T10:42:40;4.53;;;0.68;;
86039;SDS011;76638;53.338;-6.250;2024-02-26T10:45:07;3.53;;;1.63;;
86039;SDS011;76638;53.338;-6.250;2024-02-26T10:47:37;4.50;;;0.82;;
86039;SDS011;76638;53.338;-6.250;2024-02-26T10:50:04;3.22;;;0.73;;
86039;SDS011;76638;53.338;-6.250;2024-02-26T10:52:31;1.27;;;0.50;;
86039;SDS011;76638;53.338;-6.250;2024-02-26T10:55:00;4.68;;;0.77;;
86039;SDS011;76638;53.338;-6.250;2024-02-26T10:57:33;5.22;;;0.73;;
86039;SDS011;76638;53.338;-6.250;2024-02-26T11:00:03;1.48;;;0.43;;
86039;SDS011;76638;53.338;-6.250;2024-02-26T11:02:33;1.52;;;0.55;;
86039;SDS011;76638;53.338;-6.250;2024-02-26T11:05:02;4.68;;;0.73;;
86039;SDS011;76638;53.338;-6.250;2024-02-26T11:07:31;1.88;;;0.50;;
86039;SDS011;76638;53.338;-6.250;2024-02-26T11:09:59;2.97;;;0.75;;
86039;SDS011;76638;53.338;-6.250;2024-02-26T11:12:25;2.38;;;0.50;;
86039;SDS011;76638;53.338;-6.250;2024-02-26T11:14:54;2.42;;;0.45;;
86039;SDS011;76638;53.338;-6.250;2024-02-26T11:17:22;3.35;;;0.70;;
86039;SDS011;76638;53.338;-6.250;2024-02-26T11:19:49;6.90;;;1.00;;
86039;SDS011;76638;53.338;-6.250;2024-02-26T11:22:16;3.65;;;0.65;;
86039;SDS011;76638;53.338;-6.250;2024-02-26T11:24:41;1.65;;;0.70;;
86039;SDS011;76638;53.338;-6.250;2024-02-26T11:27:09;3.10;;;0.73;;
86039;SDS011;76638;53.338;-6.250;2024-02-26T11:29:43;2.53;;;0.60;;
86039;SDS011;76638;53.338;-6.250;2024-02-26T11:32:13;2.92;;;0.60;;
86039;SDS011;76638;53.338;-6.250;2024-02-26T11:34:39;3.13;;;0.80;;
86039;SDS011;76638;53.338;-6.250;2024-02-26T11:37:14;3.75;;;0.80;;
86039;SDS011;76638;53.338;-6.250;2024-02-26T11:39:40;5.55;;;1.00;;
86039;SDS011;76638;53.338;-6.250;2024-02-26T11:42:07;4.45;;;1.00;;
86039;SDS011;76638;53.338;-6.250;2024-02-26T11:44:34;3.85;;;0.93;;
86039;SDS011;76638;53.338;-6.250;2024-02-26T11:47:13;4.03;;;1.00;;
86039;SDS011;76638;53.338;-6.250;2024-02-26T11:49:48;2.10;;;0.70;;
86039;SDS011;76638;53.338;-6.250;2024-02-26T11:52:14;2.88;;;0.85;;
86039;SDS011;76638;53.338;-6.250;2024-02-26T11:54:48;3.67;;;1.33;;
86039;SDS011;76638;53.338;-6.250;2024-02-26T11:57:37;3.10;;;1.33;;
86039;SDS011;76638;53.338;-6.250;2024-02-26T12:00:13;3.10;;;0.77;;
86039;SDS011;76638;53.338;-6.250;2024-02-26T12:02:55;3.72;;;0.95;;
86039;SDS011;76638;53.338;-6.250;2024-02-26T12:05:26;3.80;;;1.10;;
86039;SDS011;76638;53.338;-6.250;2024-02-26T12:10:27;1.65;;;0.68;;
86039;SDS011;76638;53.338;-6.250;2024-02-26T12:15:23;3.38;;;0.50;;
86039;SDS011;76638;53.338;-6.250;2024-02-26T12:17:49;1.23;;;0.47;;
86039;SDS011;76638;53.338;-6.250;2024-02-26T12:20:16;3.10;;;1.23;;
86039;SDS011;76638;53.338;-6.250;2024-02-26T12:22:46;1.67;;;0.60;;
86039;SDS011;76638;53.338;-6.250;2024-02-26T12:25:15;2.25;;;1.05;;
86039;SDS011;76638;53.338;-6.250;2024-02-26T12:27:41;1.48;;;0.60;;
86039;SDS011;76638;53.338;-6.250;2024-02-26T12:30:07;3.75;;;0.47;;
86039;SDS011;76638;53.338;-6.250;2024-02-26T12:32:34;2.00;;;0.55;;
86039;SDS011;76638;53.338;-6.250;2024-02-26T12:35:00;7.57;;;0.65;;
86039;SDS011;76638;53.338;-6.250;2024-02-26T12:37:27;2.30;;;1.13;;
86039;SDS011;76638;53.338;-6.250;2024-02-26T12:39:53;1.65;;;0.40;;
86039;SDS011;76638;53.338;-6.250;2024-02-26T12:42:18;2.47;;;0.52;;
86039;SDS011;76638;53.338;-6.250;2024-02-26T12:44:49;5.25;;;0.80;;
86039;SDS011;76638;53.338;-6.250;2024-02-26T12:49:42;3.17;;;0.50;;
86039;SDS011;76638;53.338;-6.250;2024-02-26T12:52:10;4.70;;;0.70;;
86039;SDS011;76638;53.338;-6.250;2024-02-26T12:54:36;3.25;;;0.40;;
86039;SDS011;76638;53.338;-6.250;2024-02-26T12:57:06;1.65;;;0.30;;
86039;SDS011;76638;53.338;-6.250;2024-02-26T12:59:34;1.30;;;0.43;;
86039;SDS011;76638;53.338;-6.250;2024-02-26T13:02:00;2.33;;;0.50;;
86039;SDS011;76638;53.338;-6.250;2024-02-26T13:04:27;1.13;;;0.43;;
86039;SDS011;76638;53.338;-6.250;2024-02-26T13:06:54;1.50;;;0.47;;
86039;SDS011;76638;53.338;-6.250;2024-02-26T13:09:20;6.22;;;1.60;;
86039;SDS011;76638;53.338;-6.250;2024-02-26T13:11:56;1.40;;;0.60;;
86039;SDS011;76638;53.338;-6.250;2024-02-26T13:14:22;2.03;;;0.60;;
86039;SDS011;76638;53.338;-6.250;2024-02-26T13:16:55;1.27;;;0.80;;
86039;SDS011;76638;53.338;-6.250;2024-02-26T13:19:21;3.28;;;0.60;;
86039;SDS011;76638;53.338;-6.250;2024-02-26T13:21:47;2.42;;;0.70;;
86039;SDS011;76638;53.338;-6.250;2024-02-26T13:24:13;3.28;;;0.57;;
86039;SDS011;76638;53.338;-6.250;2024-02-26T13:26:39;2.25;;;0.60;;
86039;SDS011;76638;53.338;-6.250;2024-02-26T13:29:05;5.70;;;0.75;;
86039;SDS011;76638;53.338;-6.250;2024-02-26T13:31:31;1.67;;;0.60;;
86039;SDS011;76638;53.338;-6.250;2024-02-26T13:33:57;4.38;;;0.70;;
86039;SDS011;76638;53.338;-6.250;2024-02-26T13:36:23;0.65;;;0.52;;
86039;SDS011;76638;53.338;-6.250;2024-02-26T13:38:53;2.80;;;0.40;;
86039;SDS011;76638;53.338;-6.250;2024-02-26T13:41:20;1.42;;;0.52;;
86039;SDS011;76638;53.338;-6.250;2024-02-26T13:43:46;4.35;;;0.70;;
86039;SDS011;76638;53.338;-6.250;2024-02-26T13:46:13;1.52;;;0.98;;
86039;SDS011;76638;53.338;-6.250;2024-02-26T13:48:40;2.25;;;0.57;;
86039;SDS011;76638;53.338;-6.250;2024-02-26T13:51:07;3.55;;;1.20;;
86039;SDS011;76638;53.338;-6.250;2024-02-26T13:53:32;2.55;;;0.40;;
86039;SDS011;76638;53.338;-6.250;2024-02-26T13:55:58;2.17;;;0.50;;
86039;SDS011;76638;53.338;-6.250;2024-02-26T13:58:26;2.88;;;1.00;;
86039;SDS011;76638;53.338;-6.250;2024-02-26T14:00:52;2.05;;;0.60;;
86039;SDS011;76638;53.338;-6.250;2024-02-26T14:03:22;5.35;;;0.70;;
86039;SDS011;76638;53.338;-6.250;2024-02-26T14:05:48;3.53;;;0.50;;
86039;SDS011;76638;53.338;-6.250;2024-02-26T14:08:14;3.72;;;0.70;;
86039;SDS011;76638;53.338;-6.250;2024-02-26T14:10:40;1.60;;;0.55;;
86039;SDS011;76638;53.338;-6.250;2024-02-26T14:13:06;1.70;;;0.40;;
86039;SDS011;76638;53.338;-6.250;2024-02-26T14:15:32;1.05;;;0.40;;
86039;SDS011;76638;53.338;-6.250;2024-02-26T14:17:59;0.65;;;0.50;;
86039;SDS011;76638;53.338;-6.250;2024-02-26T14:20:28;5.13;;;0.95;;
86039;SDS011;76638;53.338;-6.250;2024-02-26T14:22:53;1.15;;;0.50;;
86039;SDS011;76638;53.338;-6.250;2024-02-26T14:25:20;0.95;;;0.85;;
86039;SDS011;76638;53.338;-6.250;2024-02-26T14:27:47;1.88;;;0.52;;
86039;SDS011;76638;53.338;-6.250;2024-02-26T14:30:13;2.72;;;0.70;;
86039;SDS011;76638;53.338;-6.250;2024-02-26T14:32:39;2.78;;;0.80;;
86039;SDS011;76638;53.338;-6.250;2024-02-26T14:35:06;1.27;;;0.60;;